Time;durP1;ratioP1;P1;durP2;ratioP2;P2;SDS_P1;SDS_P2;PMS_P1;PMS_P2;Temp;Humidity;BMP_temperature;BMP_pressure;BME280_temperature;BME280_humidity;BME280_pressure;Samples;Min_cycle;Max_cycle;Signal;HPM_P1;HPM_P2
2022/03/06 00:00:41;;;;;;;0.30;0.30;;;3.70;99.90;3.20;101990.00;;;;5115309;28;20588;-72
2022/03/06 00:03:10;;;;;;;0.60;0.60;;;3.80;99.90;2.80;102046.00;;;;5115212;28;20195;-71
2022/03/06 00:05:42;;;;;;;6.70;4.33;;;3.70;99.90;3.30;102040.00;;;;5115224;28;20180;-72
2022/03/06 00:08:10;;;;;;;0.40;0.40;;;3.80;99.90;3.40;102051.00;;;;5098006;28;20192;-72
2022/03/06 00:10:38;;;;;;;0.30;0.30;;;3.90;99.90;3.50;102007.00;;;;5114949;28;20176;-72
2022/03/06 00:13:08;;;;;;;1.40;1.40;;;3.90;99.90;3.50;102063.00;;;;5097473;28;20241;-71
2022/03/06 00:15:36;;;;;;;0.60;0.60;;;4.00;99.90;3.00;102053.00;;;;5115503;28;20164;-70
2022/03/06 00:18:05;;;;;;;0.30;0.30;;;3.80;99.90;2.80;102048.00;;;;5097888;28;20267;-72
2022/03/06 00:20:34;;;;;;;3.93;2.77;;;3.60;99.90;2.90;102052.00;;;;5097948;28;20633;-71
2022/03/06 00:23:03;;;;;;;3.13;2.20;;;3.50;99.90;2.90;102036.00;;;;5098238;28;20180;-72
2022/03/06 00:25:32;;;;;;;1.37;1.37;;;3.50;99.90;2.90;102045.00;;;;5097926;28;20180;-72
2022/03/06 00:28:01;;;;;;;0.30;0.30;;;3.50;99.90;2.60;102048.00;;;;5097836;28;20191;-72
2022/03/06 00:30:27;;;;;;;1.23;1.23;;;3.40;99.90;2.80;102060.00;;;;5114698;28;20648;-72
2022/03/06 00:32:56;;;;;;;0.30;0.30;;;3.50;99.90;2.60;102000.00;;;;5097365;28;20298;-69
2022/03/06 00:35:26;;;;;;;0.63;0.63;;;3.40;99.90;2.90;102068.00;;;;5114431;28;20169;-71
2022/03/06 00:37:55;;;;;;;0.40;0.40;;;3.50;99.90;2.90;102060.00;;;;5114752;28;20208;-72
2022/03/06 00:40:30;;;;;;;2.00;2.00;;;3.50;99.90;2.50;102013.00;;;;5114427;28;20268;-72
2022/03/06 00:43:01;;;;;;;0.30;0.30;;;3.30;99.90;2.40;102067.00;;;;5096905;28;20183;-71
2022/03/06 00:45:29;;;;;;;1.70;1.60;;;3.30;99.90;2.10;102066.00;;;;5114175;28;20214;-70
2022/03/06 00:47:58;;;;;;;7.73;2.40;;;3.20;99.90;2.10;102053.00;;;;5114520;28;20653;-70
2022/03/06 00:50:31;;;;;;;0.60;0.60;;;3.00;99.90;2.40;102058.00;;;;5114367;28;20207;-70
2022/03/06 00:52:59;;;;;;;1.07;1.07;;;3.20;99.90;2.40;102067.00;;;;5114210;28;20207;-71
2022/03/06 00:55:30;;;;;;;0.30;0.30;;;3.20;99.90;2.40;102074.00;;;;5114103;28;20172;-71
2022/03/06 00:57:56;;;;;;;4.87;4.47;;;3.20;99.90;2.40;102058.00;;;;5115196;27;20627;-70
2022/03/06 01:00:23;;;;;;;0.30;0.30;;;3.20;99.90;2.00;102083.00;;;;5114090;28;20172;-71
2022/03/06 01:02:49;;;;;;;2.77;1.33;;;3.00;99.90;2.60;102071.00;;;;5096910;28;20180;-71
2022/03/06 01:05:17;;;;;;;0.93;0.53;;;3.20;99.90;2.20;102050.00;;;;5114158;28;20183;-71
2022/03/06 01:07:48;;;;;;;0.53;0.53;;;3.10;99.90;2.30;102090.00;;;;5097380;28;20279;-71
2022/03/06 01:10:16;;;;;;;0.30;0.30;;;3.10;99.90;2.20;102023.00;;;;5096291;28;20183;-71
2022/03/06 01:12:45;;;;;;;1.57;1.47;;;3.10;99.90;2.10;102081.00;;;;5113270;28;20228;-71
2022/03/06 01:15:15;;;;;;;20.67;3.90;;;3.00;99.90;2.60;102079.00;;;;5097262;28;20181;-71
2022/03/06 01:17:43;;;;;;;3.57;3.23;;;3.10;99.90;2.30;102092.00;;;;5113798;28;20176;-71
2022/03/06 01:20:20;;;;;;;1.00;1.00;;;3.10;99.90;2.20;102088.00;;;;5096546;28;20627;-71
2022/03/06 01:22:50;;;;;;;2.37;0.70;;;3.10;99.90;2.30;102095.00;;;;5113688;28;20191;-72
2022/03/06 01:25:26;;;;;;;1.87;1.77;;;3.10;99.90;2.40;102092.00;;;;5113400;28;20180;-71
2022/03/06 01:27:54;;;;;;;4.40;2.30;;;3.30;99.90;2.20;102096.00;;;;5096845;28;20270;-71
2022/03/06 01:30:22;;;;;;;0.30;0.30;;;3.20;99.90;2.30;102099.00;;;;5096366;28;20180;-71
2022/03/06 01:32:54;;;;;;;0.90;0.90;;;3.10;99.90;2.10;102084.00;;;;5113496;28;20655;-71
2022/03/06 01:35:23;;;;;;;4.00;1.50;;;3.10;99.90;2.10;102084.00;;;;5113150;28;20183;-72
2022/03/06 01:37:52;;;;;;;3.50;2.83;;;3.00;99.90;2.30;102105.00;;;;5096971;28;20184;-71
2022/03/06 01:40:19;;;;;;;2.23;2.13;;;3.10;99.90;1.90;102113.00;;;;5113307;28;20176;-70
2022/03/06 01:42:51;;;;;;;0.73;0.73;;;3.10;99.90;1.80;102099.00;;;;5096592;28;20184;-71
2022/03/06 01:45:21;;;;;;;0.90;0.90;;;2.90;99.90;2.00;102112.00;;;;5113133;28;20188;-71
2022/03/06 01:47:52;;;;;;;1.97;1.93;;;2.90;99.90;2.50;102107.00;;;;5113035;28;20187;-72
2022/03/06 01:50:27;;;;;;;5.37;3.07;;;3.00;99.90;2.10;102101.00;;;;5096411;28;20218;-71
2022/03/06 01:52:55;;;;;;;1.90;1.80;;;3.00;99.90;1.90;102112.00;;;;5114525;28;20631;-71
2022/03/06 01:55:29;;;;;;;1.60;1.50;;;3.00;99.90;1.70;102110.00;;;;5095603;28;20278;-71
2022/03/06 01:58:08;;;;;;;9.73;3.50;;;2.80;99.90;1.90;102107.00;;;;5113058;28;20259;-71
2022/03/06 02:00:46;;;;;;;8.77;1.47;;;2.90;99.90;2.00;102060.00;;;;5112962;28;20168;-72
2022/03/06 02:03:14;;;;;;;5.70;3.60;;;2.90;99.90;1.80;102103.00;;;;5096034;28;20241;-71
2022/03/06 02:05:44;;;;;;;6.67;6.00;;;2.90;99.90;1.70;102093.00;;;;5112639;28;20175;-70
2022/03/06 02:08:12;;;;;;;0.70;0.70;;;2.80;99.90;1.70;102118.00;;;;5112533;28;20172;-71
2022/03/06 02:10:41;;;;;;;0.80;0.80;;;2.80;99.90;1.70;102078.00;;;;5112653;28;20580;-71
2022/03/06 02:13:10;;;;;;;0.63;0.63;;;2.70;99.90;2.00;102122.00;;;;5096183;28;20716;-71
2022/03/06 02:15:38;;;;;;;5.40;2.77;;;2.80;99.90;1.80;102114.00;;;;5114075;28;20187;-70
2022/03/06 02:18:07;;;;;;;2.17;2.03;;;2.80;99.90;1.70;102055.00;;;;5113091;28;20176;-70
2022/03/06 02:20:37;;;;;;;3.63;2.03;;;2.80;99.90;1.60;102108.00;;;;5114001;28;20240;-71
2022/03/06 02:23:05;;;;;;;1.83;1.73;;;2.70;99.90;1.80;102057.00;;;;5112185;28;20180;-70
2022/03/06 02:25:34;;;;;;;3.60;3.30;;;2.70;99.90;1.70;102054.00;;;;5112644;28;20251;-71
2022/03/06 02:28:09;;;;;;;8.20;4.13;;;2.70;99.90;1.60;102069.00;;;;5112599;28;20190;-71
2022/03/06 02:30:42;;;;;;;0.40;0.40;;;2.70;99.90;1.70;102104.00;;;;5112731;28;20179;-71
2022/03/06 02:33:12;;;;;;;1.07;0.90;;;2.70;99.90;1.40;102108.00;;;;5095173;28;20231;-71
2022/03/06 02:35:38;;;;;;;0.57;0.57;;;2.60;99.90;1.50;102104.00;;;;5112587;28;20180;-71
2022/03/06 02:38:08;;;;;;;4.63;3.20;;;2.50;99.90;1.70;102115.00;;;;5095246;28;20204;-70
2022/03/06 02:40:41;;;;;;;0.20;0.20;;;2.60;99.90;1.70;102111.00;;;;5095608;28;20208;-71
2022/03/06 02:43:10;;;;;;;4.47;2.30;;;2.70;99.90;1.40;102115.00;;;;5112385;28;20175;-70
2022/03/06 02:45:39;;;;;;;1.60;1.33;;;2.60;99.90;1.40;102120.00;;;;5095683;28;20643;-70
2022/03/06 02:48:05;;;;;;;4.60;1.97;;;2.50;99.90;1.30;102128.00;;;;5112287;28;20308;-71
2022/03/06 02:50:37;;;;;;;1.27;1.27;;;2.50;99.90;1.40;102109.00;;;;5112463;28;20183;-71
2022/03/06 02:53:06;;;;;;;3.20;2.33;;;2.50;99.90;1.30;102115.00;;;;5095129;28;20252;-70
2022/03/06 02:55:32;;;;;;;1.97;1.87;;;2.50;99.90;1.30;102111.00;;;;5095795;28;20186;-71
2022/03/06 02:58:01;;;;;;;4.73;1.07;;;2.40;99.90;1.30;102110.00;;;;5095284;28;20176;-71
2022/03/06 03:00:29;;;;;;;2.87;1.27;;;2.40;99.90;1.40;102115.00;;;;5112357;28;20172;-71
2022/03/06 03:02:58;;;;;;;1.67;1.57;;;2.40;99.90;1.00;102105.00;;;;5112493;28;20172;-71
2022/03/06 03:05:26;;;;;;;4.87;4.47;;;2.30;99.90;0.90;102130.00;;;;5095248;28;20180;-71
2022/03/06 03:07:55;;;;;;;1.53;1.43;;;2.30;99.90;1.20;102118.00;;;;5095327;28;20278;-71
2022/03/06 03:10:26;;;;;;;1.10;0.97;;;2.30;99.90;1.20;102129.00;;;;5095145;28;20692;-71
2022/03/06 03:12:53;;;;;;;2.83;2.63;;;2.30;99.90;1.10;102116.00;;;;5094986;28;20207;-71
2022/03/06 03:15:25;;;;;;;1.60;1.50;;;2.30;99.90;1.00;102130.00;;;;5094853;28;20330;-71
2022/03/06 03:17:57;;;;;;;2.13;1.93;;;2.30;99.90;1.30;102129.00;;;;5079944;28;20275;-71
2022/03/06 03:20:28;;;;;;;2.20;2.07;;;2.30;99.90;1.10;102117.00;;;;5115791;28;20172;-71
2022/03/06 03:23:01;;;;;;;5.77;3.73;;;2.20;99.90;1.10;102125.00;;;;5115857;28;20532;-70
2022/03/06 03:25:30;;;;;;;2.57;2.37;;;2.20;99.90;1.20;102121.00;;;;5115946;28;20211;-72
2022/03/06 03:27:59;;;;;;;0.60;0.60;;;2.30;99.90;1.10;102120.00;;;;5116013;28;20180;-71
2022/03/06 03:30:28;;;;;;;1.50;1.37;;;2.20;99.90;1.00;102081.00;;;;5116084;28;20169;-71
2022/03/06 03:32:59;;;;;;;3.83;2.77;;;2.10;99.90;1.10;102127.00;;;;5099193;28;20215;-71
2022/03/06 03:35:33;;;;;;;0.53;0.53;;;2.20;99.90;1.10;102130.00;;;;5099403;28;20180;-71
2022/03/06 03:38:04;;;;;;;2.07;1.97;;;2.20;99.90;1.00;102076.00;;;;5115638;28;20175;-71
2022/03/06 03:40:30;;;;;;;4.70;3.13;;;2.20;99.90;1.10;102132.00;;;;5098593;28;20187;-72
2022/03/06 03:42:59;;;;;;;0.30;0.30;;;2.20;99.90;1.00;102111.00;;;;5098423;28;20639;-71
2022/03/06 03:45:28;;;;;;;1.57;1.57;;;2.20;99.90;1.10;102081.00;;;;5115592;28;20207;-71
2022/03/06 03:47:58;;;;;;;0.30;0.30;;;2.20;99.90;1.10;102071.00;;;;5115552;28;20259;-71
2022/03/06 03:50:26;;;;;;;2.13;2.03;;;2.20;99.90;1.40;102122.00;;;;5115161;28;20506;-71
2022/03/06 03:52:55;;;;;;;2.00;1.90;;;2.30;99.90;1.30;102139.00;;;;5115388;28;20192;-72
2022/03/06 03:55:24;;;;;;;1.07;0.90;;;2.30;99.90;1.20;102084.00;;;;5098924;28;20188;-72
2022/03/06 03:57:52;;;;;;;2.00;1.43;;;2.30;99.90;1.00;102136.00;;;;5115187;28;20270;-72
2022/03/06 04:00:24;;;;;;;3.63;3.30;;;2.20;99.90;0.90;102151.00;;;;5098722;28;20694;-72
2022/03/06 04:03:23;;;;;;;1.70;1.57;;;2.00;99.90;0.50;102150.00;;;;5115127;28;20180;-71
2022/03/06 04:05:54;;;;;;;0.77;0.77;;;1.90;99.90;0.90;102154.00;;;;5097955;28;20211;-72
2022/03/06 04:08:22;;;;;;;9.30;3.10;;;1.90;99.90;0.90;102150.00;;;;5115145;28;20649;-71
2022/03/06 04:10:51;;;;;;;0.37;0.37;;;1.90;99.90;0.80;102164.00;;;;5098324;28;20266;-72
2022/03/06 04:13:21;;;;;;;2.47;2.33;;;1.90;99.90;0.80;102171.00;;;;5114579;28;20208;-71
2022/03/06 04:15:50;;;;;;;3.43;3.20;;;1.90;99.90;1.20;102156.00;;;;5098244;28;20207;-72
2022/03/06 04:18:24;;;;;;;1.80;1.70;;;2.00;99.90;0.90;102106.00;;;;5097891;28;20176;-72
2022/03/06 04:20:49;;;;;;;6.70;4.37;;;2.00;99.90;0.60;102177.00;;;;5114894;28;20611;-72
2022/03/06 04:23:18;;;;;;;1.97;1.80;;;1.90;99.90;0.80;102173.00;;;;5097923;28;20190;-72
2022/03/06 04:25:49;;;;;;;1.70;1.63;;;1.90;99.90;0.80;102166.00;;;;5114830;28;20168;-72
2022/03/06 04:28:18;;;;;;;2.23;0.90;;;1.80;99.90;0.80;102182.00;;;;5114623;28;20207;-72
2022/03/06 04:30:46;;;;;;;2.30;2.13;;;1.90;99.90;0.80;102178.00;;;;5097847;28;20270;-72
2022/03/06 04:33:17;;;;;;;0.20;0.20;;;1.90;99.90;0.50;102178.00;;;;5114288;28;20219;-71
2022/03/06 04:35:45;;;;;;;2.27;2.10;;;1.70;99.90;0.60;102182.00;;;;5114504;28;20176;-72
2022/03/06 04:38:11;;;;;;;0.30;0.30;;;1.70;99.90;0.70;102155.00;;;;5114516;28;20224;-72
2022/03/06 04:40:37;;;;;;;1.37;1.27;;;1.70;99.90;0.70;102136.00;;;;5097507;28;20184;-73
2022/03/06 04:43:07;;;;;;;0.83;0.83;;;1.70;99.90;0.50;102194.00;;;;5097066;28;20203;-73
2022/03/06 04:45:38;;;;;;;4.83;2.83;;;1.70;99.90;0.60;102199.00;;;;5114746;28;20687;-73
2022/03/06 04:48:07;;;;;;;7.03;3.67;;;1.70;99.90;0.50;102203.00;;;;5114426;28;20169;-72
2022/03/06 04:50:35;;;;;;;1.53;1.47;;;1.60;99.90;0.30;102205.00;;;;5115391;28;20263;-72
2022/03/06 04:53:03;;;;;;;1.83;1.73;;;1.50;99.90;0.50;102193.00;;;;5096499;28;20219;-72
2022/03/06 04:55:35;;;;;;;5.70;3.37;;;1.60;99.90;0.60;102208.00;;;;5097464;28;20176;-73
2022/03/06 04:58:03;;;;;;;3.77;2.20;;;1.60;99.90;0.50;102207.00;;;;5115322;28;20176;-72
2022/03/06 05:00:33;;;;;;;4.40;2.93;;;1.60;99.90;0.60;102164.00;;;;5114077;28;20514;-73
2022/03/06 05:03:03;;;;;;;6.97;3.73;;;1.70;99.90;0.50;102158.00;;;;5113767;28;20180;-73
2022/03/06 05:05:32;;;;;;;2.20;2.10;;;1.70;99.90;0.50;102218.00;;;;5113712;28;20172;-73
2022/03/06 05:07:58;;;;;;;10.67;1.63;;;1.70;99.90;0.50;102220.00;;;;5113854;28;20180;-72
2022/03/06 05:10:26;;;;;;;2.40;1.97;;;1.70;99.90;0.80;102223.00;;;;5114085;28;20183;-72
2022/03/06 05:12:52;;;;;;;1.60;1.53;;;1.80;99.90;0.60;102239.00;;;;5115196;28;20568;-73
2022/03/06 05:15:21;;;;;;;1.10;0.80;;;1.70;99.90;0.60;102240.00;;;;5096679;28;20188;-72
2022/03/06 05:17:49;;;;;;;1.47;1.40;;;1.70;99.90;0.50;102227.00;;;;5113442;28;20161;-72
2022/03/06 05:20:20;;;;;;;2.43;2.20;;;1.60;99.90;0.50;102215.00;;;;5113427;28;20204;-73
2022/03/06 05:22:51;;;;;;;5.07;3.53;;;1.60;99.90;0.80;102240.00;;;;5113730;28;20180;-72
2022/03/06 05:25:17;;;;;;;8.63;5.03;;;1.70;99.90;0.60;102232.00;;;;5113414;28;20722;-72
2022/03/06 05:27:45;;;;;;;4.43;3.97;;;1.60;99.90;0.30;102224.00;;;;5113476;28;20176;-72
2022/03/06 05:30:20;;;;;;;9.43;4.60;;;1.60;99.90;0.30;102233.00;;;;5113859;28;20180;-72
2022/03/06 05:32:48;;;;;;;1.53;1.43;;;1.50;99.90;0.40;102249.00;;;;5096519;28;20207;-73
2022/03/06 05:35:17;;;;;;;9.97;4.40;;;1.50;99.90;0.50;102225.00;;;;5096723;28;20179;-72
2022/03/06 05:37:43;;;;;;;7.27;5.10;;;1.60;99.90;0.30;102242.00;;;;5113320;28;20226;-72
2022/03/06 05:40:14;;;;;;;7.10;4.60;;;1.50;99.90;0.40;102253.00;;;;5096430;28;20657;-72
2022/03/06 05:42:45;;;;;;;2.40;2.20;;;1.50;99.90;0.40;102237.00;;;;5112790;28;20638;-73
2022/03/06 05:45:13;;;;;;;4.27;3.83;;;1.60;99.90;0.30;102203.00;;;;5097020;28;20643;-73
2022/03/06 05:47:42;;;;;;;5.03;4.73;;;1.50;99.90;0.30;102260.00;;;;5112755;28;20540;-73
2022/03/06 05:50:11;;;;;;;4.47;3.13;;;1.50;99.90;0.30;102247.00;;;;5096562;28;20183;-73
2022/03/06 05:52:39;;;;;;;7.83;3.73;;;1.50;99.90;0.40;102245.00;;;;5113015;28;20211;-72
2022/03/06 05:55:30;;;;;;;1.10;1.10;;;1.50;99.90;0.30;102259.00;;;;5113090;28;20180;-73
2022/03/06 05:58:03;;;;;;;2.93;2.30;;;1.50;99.90;0.30;102241.00;;;;5081789;28;20172;-72
2022/03/06 06:00:32;;;;;;;6.63;5.20;;;1.50;99.90;0.20;102266.00;;;;5112727;28;20172;-73
2022/03/06 06:03:03;;;;;;;3.40;2.00;;;1.50;99.90;0.20;102261.00;;;;5096261;28;20176;-72
2022/03/06 06:05:31;;;;;;;5.77;3.37;;;1.40;99.90;0.30;102202.00;;;;5112865;28;20259;-72
2022/03/06 06:08:00;;;;;;;1.37;1.30;;;1.50;99.90;0.30;102265.00;;;;5096079;28;20631;-72
2022/03/06 06:10:30;;;;;;;4.80;3.43;;;1.50;99.90;0.40;102267.00;;;;5112853;28;20184;-71
2022/03/06 06:13:01;;;;;;;3.17;2.93;;;1.60;99.90;0.50;102273.00;;;;5112729;28;20218;-72
2022/03/06 06:15:30;;;;;;;4.70;4.00;;;1.60;99.90;0.30;102267.00;;;;5113876;28;20183;-71
2022/03/06 06:17:56;;;;;;;2.50;2.30;;;1.50;99.90;0.30;102279.00;;;;5096013;28;20227;-72
2022/03/06 06:20:24;;;;;;;1.23;1.13;;;1.50;99.90;0.50;102285.00;;;;5095775;28;20219;-71
2022/03/06 06:22:55;;;;;;;3.70;3.40;;;1.50;99.90;0.70;102290.00;;;;5112509;28;20203;-72
2022/03/06 06:25:23;;;;;;;2.33;2.23;;;1.60;99.90;0.40;102293.00;;;;5112156;28;20552;-71
2022/03/06 06:27:54;;;;;;;10.97;6.67;;;1.60;99.90;0.30;102288.00;;;;5096077;28;20270;-72
2022/03/06 06:30:20;;;;;;;2.63;2.43;;;1.50;99.90;0.40;102233.00;;;;5096000;28;20172;-71
2022/03/06 06:32:51;;;;;;;3.03;2.93;;;1.50;99.90;0.20;102283.00;;;;5095434;28;20212;-71
2022/03/06 06:35:23;;;;;;;1.57;1.33;;;1.50;99.90;0.40;102260.00;;;;5095727;28;20278;-72
2022/03/06 06:37:54;;;;;;;3.03;2.03;;;1.50;99.90;0.40;102271.00;;;;5112799;28;20187;-72
2022/03/06 06:40:26;;;;;;;1.50;1.50;;;1.50;99.90;0.30;102277.00;;;;5112613;28;20171;-71
2022/03/06 06:43:02;;;;;;;1.13;1.03;;;1.50;99.90;0.30;102281.00;;;;5112429;28;20179;-72
2022/03/06 06:45:31;;;;;;;7.07;5.27;;;1.50;99.90;0.50;102308.00;;;;5095513;28;20619;-71
2022/03/06 06:47:59;;;;;;;1.37;1.27;;;1.50;99.90;0.30;102303.00;;;;5095501;28;20642;-72
2022/03/06 06:50:28;;;;;;;4.27;3.87;;;1.50;99.90;0.50;102292.00;;;;5112592;28;20206;-72
2022/03/06 06:52:56;;;;;;;7.40;1.77;;;1.50;99.90;0.60;102301.00;;;;5112613;28;20212;-72
2022/03/06 06:55:26;;;;;;;3.93;2.00;;;1.60;99.90;0.50;102313.00;;;;5099620;28;20176;-71
2022/03/06 06:57:57;;;;;;;2.87;2.67;;;1.70;99.90;0.50;102321.00;;;;5099103;28;20176;-72
2022/03/06 07:00:28;;;;;;;5.17;3.03;;;1.70;99.90;0.50;102324.00;;;;5099263;28;20176;-71
2022/03/06 07:02:56;;;;;;;4.33;4.00;;;1.70;99.90;0.70;102330.00;;;;5116322;28;20260;-72
2022/03/06 07:05:22;;;;;;;3.10;2.87;;;1.80;99.90;0.50;102323.00;;;;5116569;28;20176;-71
2022/03/06 07:07:54;;;;;;;9.17;6.63;;;1.70;99.90;0.50;102329.00;;;;5116116;28;20215;-71
2022/03/06 07:10:23;;;;;;;7.83;3.83;;;1.70;99.90;0.50;102321.00;;;;5099779;28;20589;-71
2022/03/06 07:12:55;;;;;;;2.90;2.70;;;1.70;99.90;0.70;102316.00;;;;5115761;28;20200;-72
2022/03/06 07:15:29;;;;;;;16.93;7.30;;;1.80;99.90;0.80;102298.00;;;;5099238;28;20233;-72
2022/03/06 07:18:29;;;;;;;3.70;2.63;;;2.00;99.90;0.90;102320.00;;;;5116225;28;20178;-71
2022/03/06 07:21:37;;;;;;;0.80;0.80;;;2.00;99.90;1.10;102327.00;;;;5099172;28;20615;-72
2022/03/06 07:24:33;;;;;;;0.30;0.30;;;2.10;99.90;1.20;102336.00;;;;5116186;28;20627;-72
2022/03/06 07:27:49;;;;;;;0.50;0.50;;;2.40;99.90;1.10;102333.00;;;;5095586;28;20252;-72
2022/03/06 07:30:23;;;;;;;4.70;2.17;;;2.30;99.90;1.20;102332.00;;;;5086618;28;20195;-72
2022/03/06 07:32:55;;;;;;;0.57;0.57;;;2.30;99.90;1.40;102330.00;;;;5098958;28;20242;-71
2022/03/06 07:36:33;;;;;;;2.40;2.20;;;2.30;99.90;1.70;102285.00;;;;5098780;28;20183;-72
2022/03/06 07:39:01;;;;;;;1.13;0.73;;;2.50;99.90;2.00;102348.00;;;;5100672;28;20180;-72
2022/03/06 07:41:52;;;;;;;0.40;0.40;;;2.80;99.90;2.30;102348.00;;;;5098612;28;20558;-72
2022/03/06 07:45:18;;;;;;;5.20;3.50;;;3.00;99.90;2.30;102365.00;;;;5098480;28;20184;-72
2022/03/06 07:48:42;;;;;;;2.60;1.37;;;3.20;99.90;2.20;102368.00;;;;5115562;28;20172;-71
2022/03/06 07:51:42;;;;;;;1.53;1.43;;;3.10;99.90;2.50;102388.00;;;;5115518;28;20545;-71
2022/03/06 07:54:26;;;;;;;2.73;2.40;;;3.30;99.90;2.40;102376.00;;;;5098583;28;20175;-72
2022/03/06 07:56:52;;;;;;;1.37;1.37;;;3.40;99.90;2.50;102278.00;;;;5116161;28;20161;-70
2022/03/06 07:59:21;;;;;;;1.73;1.63;;;3.50;99.90;2.90;102409.00;;;;5098026;28;20195;-70
2022/03/06 08:01:52;;;;;;;4.07;3.87;;;3.70;99.90;3.60;102415.00;;;;5115497;28;20180;-72
2022/03/06 08:04:28;;;;;;;1.53;1.43;;;4.10;99.90;4.10;102439.00;;;;5116196;28;20687;-70
2022/03/06 08:06:56;;;;;;;1.80;1.70;;;4.60;99.90;4.30;102439.00;;;;5115268;28;20188;-71
2022/03/06 08:09:32;;;;;;;2.27;1.70;;;4.90;99.90;4.30;102460.00;;;;5115347;28;20585;-71
2022/03/06 08:12:15;;;;;;;5.23;3.17;;;5.20;99.90;3.50;102475.00;;;;5097812;28;20205;-71
2022/03/06 08:14:49;;;;;;;5.20;3.57;;;4.80;99.90;3.80;102475.00;;;;5097869;28;20272;-72
2022/03/06 08:17:26;;;;;;;1.17;1.10;;;4.60;99.90;3.50;102474.00;;;;5114986;28;20538;-70
2022/03/06 08:20:04;;;;;;;2.63;2.30;;;4.50;99.90;3.80;102491.00;;;;5114878;28;20176;-70
2022/03/06 08:23:02;;;;;;;2.67;2.47;;;4.50;99.90;3.90;102483.00;;;;5098033;28;20188;-70
2022/03/06 08:25:40;;;;;;;4.43;3.27;;;4.60;99.90;3.70;102475.00;;;;5114471;28;20162;-71
2022/03/06 08:28:10;;;;;;;3.47;3.00;;;4.50;99.90;3.60;102490.00;;;;5115047;28;20184;-71
2022/03/06 08:31:01;;;;;;;3.43;3.20;;;4.50;99.90;3.50;102482.00;;;;5114672;28;20226;-72
2022/03/06 08:34:07;;;;;;;6.80;4.17;;;4.40;99.90;4.00;102495.00;;;;5097697;28;20216;-71
2022/03/06 08:36:40;;;;;;;4.63;3.33;;;4.60;99.90;4.30;102505.00;;;;5115905;27;20234;-71
2022/03/06 08:39:07;;;;;;;1.00;0.77;;;4.80;99.90;4.10;102493.00;;;;5114484;28;20163;-71
2022/03/06 08:41:35;;;;;;;3.50;3.13;;;4.90;99.90;4.00;102520.00;;;;5097458;28;20235;-71
2022/03/06 08:44:04;;;;;;;3.60;2.63;;;4.80;99.90;4.50;102503.00;;;;5097416;28;20186;-71
2022/03/06 08:46:30;;;;;;;5.10;3.23;;;5.00;99.90;4.40;102533.00;;;;5097546;28;20176;-71
2022/03/06 08:48:58;;;;;;;2.73;1.90;;;5.20;99.90;4.80;102526.00;;;;5097833;28;20505;-70
2022/03/06 08:51:26;;;;;;;5.13;3.37;;;5.40;99.90;4.50;102527.00;;;;5114800;28;20539;-71
2022/03/06 08:53:55;;;;;;;1.60;1.50;;;5.40;99.90;4.70;102537.00;;;;5115138;28;20182;-71
2022/03/06 08:56:28;;;;;;;1.40;1.03;;;5.40;99.90;5.40;102519.00;;;;5097039;28;20177;-71
2022/03/06 08:58:56;;;;;;;2.20;1.90;;;5.70;99.90;4.80;102561.00;;;;5113691;28;20201;-71
2022/03/06 09:01:28;;;;;;;4.20;3.13;;;5.70;99.90;4.90;102555.00;;;;5113249;28;20277;-70
2022/03/06 09:03:56;;;;;;;6.07;4.73;;;5.70;99.90;4.70;102551.00;;;;5097594;28;20182;-70
2022/03/06 09:06:29;;;;;;;8.57;7.63;;;5.50;99.90;4.50;102566.00;;;;5096868;28;20652;-70
2022/03/06 09:09:04;;;;;;;2.80;2.57;;;5.40;99.90;4.80;102565.00;;;;5113705;28;20178;-72
2022/03/06 09:11:40;;;;;;;7.87;5.43;;;5.40;99.90;4.80;102566.00;;;;5113488;28;20209;-70
2022/03/06 09:14:07;;;;;;;2.80;2.17;;;5.60;99.90;5.20;102574.00;;;;5113805;28;20237;-71
2022/03/06 09:16:39;;;;;;;1.13;0.80;;;5.70;99.90;5.20;102588.00;;;;5112769;28;20723;-71
2022/03/06 09:19:07;;;;;;;2.17;1.90;;;5.80;99.90;5.00;102582.00;;;;5096761;28;20218;-70
2022/03/06 09:21:35;;;;;;;3.33;3.03;;;5.70;99.90;5.80;102576.00;;;;5096836;28;20180;-71
2022/03/06 09:24:03;;;;;;;4.73;3.53;;;6.00;99.90;5.90;102587.00;;;;5113482;28;20185;-71
2022/03/06 09:26:37;;;;;;;8.37;3.53;;;6.30;99.90;5.20;102600.00;;;;5096459;28;20189;-71
2022/03/06 09:29:05;;;;;;;4.53;4.00;;;6.20;99.90;5.30;102603.00;;;;5096932;28;20186;-71
2022/03/06 09:31:39;;;;;;;6.80;4.73;;;6.00;99.90;5.70;102603.00;;;;5096683;28;20230;-72
2022/03/06 09:34:06;;;;;;;2.47;1.87;;;6.30;99.90;5.40;102599.00;;;;5096559;28;20195;-71
2022/03/06 09:36:57;;;;;;;0.77;0.77;;;6.20;99.90;5.70;102617.00;;;;5112959;28;20176;-70
2022/03/06 09:39:34;;;;;;;8.10;6.50;;;6.30;99.90;5.30;102602.00;;;;5113198;28;20208;-71
2022/03/06 09:42:07;;;;;;;5.77;3.77;;;6.30;99.90;4.90;102607.00;;;;5097319;28;20211;-71
2022/03/06 09:44:36;;;;;;;7.67;4.73;;;5.70;99.90;5.70;102590.00;;;;5096331;28;20283;-70
2022/03/06 09:47:05;;;;;;;4.30;3.90;;;6.00;99.90;5.60;102614.00;;;;5096054;28;20179;-70
2022/03/06 09:49:36;;;;;;;0.97;0.97;;;6.20;99.90;5.80;102619.00;;;;5113386;28;20229;-70
2022/03/06 09:52:05;;;;;;;1.77;1.47;;;6.30;99.90;6.20;102615.00;;;;5112528;28;20207;-71
2022/03/06 09:54:34;;;;;;;3.83;3.30;;;6.60;99.90;6.40;102616.00;;;;5113244;28;20696;-70
2022/03/06 09:57:00;;;;;;;2.30;2.20;;;6.90;99.90;6.40;102616.00;;;;5112899;28;20298;-70
2022/03/06 09:59:27;;;;;;;14.03;7.73;;;6.90;99.90;6.20;102618.00;;;;5096391;28;20183;-71
2022/03/06 10:01:53;;;;;;;4.47;2.43;;;7.00;99.90;6.20;102622.00;;;;5112865;28;20546;-70
2022/03/06 10:04:24;;;;;;;3.83;3.50;;;6.80;99.90;6.20;102646.00;;;;5113435;28;20212;-71
2022/03/06 10:06:59;;;;;;;1.13;1.13;;;6.60;99.90;7.70;102657.00;;;;5112729;28;20180;-71
2022/03/06 10:09:25;;;;;;;4.77;2.63;;;7.40;99.90;7.40;102570.00;;;;5112884;28;20184;-71
2022/03/06 10:11:54;;;;;;;0.70;0.70;;;7.70;99.90;7.80;102559.00;;;;5112609;28;20235;-72
2022/03/06 10:14:41;;;;;;;11.23;3.80;;;8.20;99.90;7.30;102567.00;;;;5112811;28;20183;-72
2022/03/06 10:17:19;;;;;;;5.23;2.70;;;8.00;99.90;7.70;102572.00;;;;5095711;28;20191;-72
2022/03/06 10:20:09;;;;;;;3.17;2.87;;;8.20;99.90;8.30;102564.00;;;;5112908;28;20649;-72
2022/03/06 10:33:23;;;;;;;5.30;3.60;;;7.40;99.90;6.60;102599.00;;;;5113851;27;1307342;-71
2022/03/06 10:35:54;;;;;;;4.27;3.73;;;7.30;99.90;7.30;102586.00;;;;5113144;28;20183;-72
2022/03/06 10:38:31;;;;;;;2.50;2.13;;;7.60;99.90;8.00;102583.00;;;;5130336;28;20172;-72
2022/03/06 10:41:17;;;;;;;3.47;3.10;;;8.10;99.90;7.30;102576.00;;;;5130666;28;20196;-72
2022/03/06 10:43:53;;;;;;;2.70;2.50;;;8.10;99.90;7.40;102546.00;;;;5130846;28;20507;-72
2022/03/06 10:46:21;;;;;;;3.93;3.60;;;8.10;99.90;6.80;102602.00;;;;5113892;28;20262;-72
2022/03/06 10:49:14;;;;;;;2.27;2.07;;;7.70;99.90;6.90;102575.00;;;;5130250;28;20515;-72
2022/03/06 10:51:45;;;;;;;5.23;2.87;;;7.30;99.90;7.40;102569.00;;;;5112948;28;20191;-72
2022/03/06 10:54:14;;;;;;;2.83;1.57;;;7.80;99.90;7.80;102584.00;;;;5113205;28;20180;-72
2022/03/06 10:56:51;;;;;;;3.10;2.77;;;8.10;99.90;8.30;102562.00;;;;5130447;28;20203;-72
2022/03/06 11:00:25;;;;;;;5.87;4.33;;;8.60;99.90;8.30;102572.00;;;;5130107;28;20185;-73
2022/03/06 11:06:28;;;;;;;1.27;1.23;;;9.60;99.90;9.00;102551.00;;;;5130059;28;20223;-72
2022/03/06 11:08:54;;;;;;;1.20;1.17;;;9.30;99.90;9.20;102552.00;;;;5129653;28;20183;-72
2022/03/06 11:11:23;;;;;;;4.90;2.97;;;9.30;99.90;8.40;102557.00;;;;5112658;28;20235;-74
2022/03/06 11:13:57;;;;;;;2.37;2.17;;;9.10;99.90;8.20;102581.00;;;;5130971;27;20208;-71
2022/03/06 11:16:28;;;;;;;1.27;1.13;;;8.70;99.90;8.60;102561.00;;;;5112997;28;20641;-72
2022/03/06 11:18:55;;;;;;;0.37;0.37;;;8.70;99.90;8.30;102574.00;;;;5112308;28;20178;-71
2022/03/06 11:21:27;;;;;;;5.43;3.57;;;8.80;99.90;7.50;102588.00;;;;5131026;28;20262;-71
2022/03/06 11:23:57;;;;;;;1.70;1.60;;;8.40;99.90;8.00;102578.00;;;;5113165;28;20182;-72
2022/03/06 11:26:53;;;;;;;4.60;3.07;;;8.30;99.90;7.40;102590.00;;;;5129561;28;20176;-71
2022/03/06 11:29:40;;;;;;;6.73;2.77;;;8.00;99.90;8.00;102580.00;;;;5129291;28;20185;-72
2022/03/06 11:32:07;;;;;;;3.23;2.90;;;8.40;99.90;8.90;102557.00;;;;5129249;28;20225;-72
2022/03/06 11:34:44;;;;;;;6.03;3.23;;;9.00;99.90;8.60;102549.00;;;;5111929;28;20178;-72
2022/03/06 11:37:16;;;;;;;2.67;2.47;;;8.80;99.90;8.70;102557.00;;;;5129347;28;20271;-72
2022/03/06 11:39:51;;;;;;;4.50;2.33;;;9.00;99.90;9.00;102554.00;;;;5128908;28;20182;-71